Terminal Aerodrome Forecast
Issued by NWS

Home | Current Version | Previous Version | Text Only | Print | Product List | Glossary Off
Versions: 1 2 3 4 5 6 7 8 9 10 11 12 13 14 15 16 17 18 19

153
FTUS43 KBIS 100531
TAFDIK
TAF
KDIK 100531Z 1006/1106 20008KT P6SM SCT120
     FM101000 25008KT P6SM SCT120
     FM101200 28010KT P6SM SCT100 SCT150 WS020/30040KT
     FM101500 31013KT P6SM BKN150
     FM102000 33015KT P6SM BKN025
     FM110200 36009KT P6SM OVC010=

USA.gov is the U.S. government's official web portal to all federal, state and local government web resources and services.